Time;durP1;ratioP1;P1;durP2;ratioP2;P2;SDS_P1;SDS_P2;PMS_P1;PMS_P2;Temp;Humidity;BMP_temperature;BMP_pressure;BME280_temperature;BME280_humidity;BME280_pressure;Samples;Min_cycle;Max_cycle;Signal;HPM_P1;HPM_P2
2021/06/05 00:00:31;;;;;;;3.33;2.05;;;;;;;13.54;69.35;99928.05;1698530;82;21597;-58
2021/06/05 00:02:58;;;;;;;4.78;2.10;;;;;;;13.52;69.36;99921.41;1757967;80;21330;-57
2021/06/05 00:05:25;;;;;;;7.20;2.50;;;;;;;13.50;69.35;99921.97;1758689;80;20907;-58
2021/06/05 00:07:51;;;;;;;6.22;2.27;;;;;;;13.49;69.49;99926.10;1749704;80;20946;-58
2021/06/05 00:10:33;;;;;;;5.47;2.15;;;;;;;13.46;69.55;99920.38;1755232;80;20938;-57
2021/06/05 00:13:00;;;;;;;4.17;2.20;;;;;;;13.43;69.64;99923.76;1754852;80;21427;-57
2021/06/05 00:15:38;;;;;;;7.30;2.08;;;;;;;13.38;69.62;99916.37;1733836;80;20911;-58
2021/06/05 00:18:06;;;;;;;3.52;1.72;;;;;;;13.33;69.74;99916.65;1752520;80;20903;-58
2021/06/05 00:20:33;;;;;;;4.80;2.12;;;;;;;13.29;69.71;99919.11;1751500;80;20954;-58
2021/06/05 00:23:00;;;;;;;12.90;2.37;;;;;;;13.26;69.79;99915.25;1753481;80;20931;-57
2021/06/05 00:25:28;;;;;;;11.00;2.62;;;;;;;13.23;69.89;99910.02;1755404;80;21482;-58
2021/06/05 00:27:55;;;;;;;8.00;1.92;;;;;;;13.22;69.97;99912.31;1696960;82;21728;-57
2021/06/05 00:30:22;;;;;;;12.30;2.52;;;;;;;13.21;70.00;99910.56;1756638;80;21651;-58
2021/06/05 00:32:49;;;;;;;9.68;2.62;;;;;;;13.19;70.08;99915.18;1755949;80;21161;-57
2021/06/05 00:35:16;;;;;;;4.60;2.90;;;;;;;13.15;70.05;99914.98;1756208;80;20916;-57
2021/06/05 00:37:43;;;;;;;6.87;2.83;;;;;;;13.12;70.10;99917.81;1758553;80;20863;-56
2021/06/05 00:40:12;;;;;;;8.68;3.20;;;;;;;13.06;70.16;99925.79;1752206;80;21873;-57
2021/06/05 00:42:40;;;;;;;5.78;3.27;;;;;;;13.03;70.20;99918.31;1753796;80;21323;-58
2021/06/05 00:45:10;;;;;;;6.12;2.98;;;;;;;13.00;70.16;99923.44;1757989;80;22141;-57
2021/06/05 00:47:36;;;;;;;3.87;2.80;;;;;;;12.97;70.20;99918.67;1735983;80;21418;-58
2021/06/05 00:50:05;;;;;;;4.42;2.20;;;;;;;12.96;70.21;99913.73;1756453;80;20982;-58
2021/06/05 00:52:32;;;;;;;8.75;2.35;;;;;;;12.95;70.14;99913.34;1758092;80;21133;-58
2021/06/05 00:54:58;;;;;;;4.72;2.70;;;;;;;12.91;70.20;99921.72;1754449;80;21053;-56
2021/06/05 00:57:25;;;;;;;6.53;2.72;;;;;;;12.85;70.28;99919.73;1752544;80;21133;-58
2021/06/05 00:59:52;;;;;;;6.30;2.80;;;;;;;12.80;70.33;99917.77;1752003;80;21021;-58
2021/06/05 01:02:19;;;;;;;5.40;3.20;;;;;;;12.76;70.38;99914.83;1695260;82;21123;-58
2021/06/05 01:04:45;;;;;;;5.92;3.40;;;;;;;12.72;70.39;99909.69;1751997;80;21584;-58
2021/06/05 01:07:20;;;;;;;10.40;2.80;;;;;;;12.69;70.33;99916.12;1757514;80;21525;-53
2021/06/05 01:09:58;;;;;;;3.33;3.02;;;;;;;12.63;70.35;99908.36;1747559;80;22141;-54
2021/06/05 01:12:38;;;;;;;4.08;2.50;;;;;;;12.58;70.39;99907.75;1754225;80;21351;-57
2021/06/05 01:15:19;;;;;;;6.97;2.87;;;;;;;12.53;70.39;99909.80;1734895;80;22598;-54
2021/06/05 01:17:51;;;;;;;7.53;3.02;;;;;;;12.49;70.46;99918.56;1752380;80;23142;-54
2021/06/05 01:20:50;;;;;;;6.30;2.77;;;;;;;12.46;70.44;99914.67;1695356;82;21112;-55
2021/06/05 01:24:11;;;;;;;5.87;3.02;;;;;;;12.45;70.35;99916.09;1754740;80;21086;-56
2021/06/05 01:26:39;;;;;;;5.65;3.08;;;;;;;12.43;70.41;99920.70;1698888;82;21115;-55
2021/06/05 01:29:17;;;;;;;6.58;2.50;;;;;;;12.38;70.50;99910.63;1762252;80;21038;-56
2021/06/05 01:31:52;;;;;;;4.95;3.45;;;;;;;12.36;70.61;99911.18;1765590;79;21140;-54
2021/06/05 01:34:23;;;;;;;6.65;3.42;;;;;;;12.35;70.74;99911.66;1766641;80;21029;-54
2021/06/05 01:36:52;;;;;;;7.70;3.30;;;;;;;12.37;70.86;99910.23;1766420;80;21872;-55
2021/06/05 01:39:26;;;;;;;4.78;2.87;;;;;;;12.36;70.86;99906.66;1764686;80;20999;-55
2021/06/05 01:41:54;;;;;;;8.57;3.37;;;;;;;12.36;70.96;99908.48;1768203;80;20948;-54
2021/06/05 01:44:24;;;;;;;5.72;2.75;;;;;;;12.34;71.06;99904.51;1769586;80;21081;-55
2021/06/05 01:46:51;;;;;;;5.40;2.98;;;;;;;12.34;71.22;99908.55;1728928;82;22032;-55
2021/06/05 01:49:19;;;;;;;6.65;3.08;;;;;;;12.35;71.31;99908.95;1707170;82;21137;-55
2021/06/05 01:51:50;;;;;;;3.98;2.62;;;;;;;12.34;71.47;99913.95;1705925;82;21146;-55
2021/06/05 01:54:41;;;;;;;5.97;2.83;;;;;;;12.33;71.57;99906.84;1711672;82;21092;-55
2021/06/05 01:57:11;;;;;;;7.28;3.80;;;;;;;12.35;71.72;99909.43;1707531;82;21600;-55
2021/06/05 01:59:46;;;;;;;5.33;2.75;;;;;;;12.37;71.75;99907.53;1677118;83;21086;-55
2021/06/05 02:02:13;;;;;;;4.65;3.42;;;;;;;12.36;71.86;99904.43;1637697;82;21129;-54
2021/06/05 02:04:40;;;;;;;7.22;2.52;;;;;;;12.34;71.90;99903.63;1731540;82;21086;-55
2021/06/05 02:07:07;;;;;;;6.80;2.52;;;;;;;12.34;71.90;99903.63;1731683;81;21109;-56
2021/06/05 02:09:36;;;;;;;4.92;2.45;;;;;;;12.34;72.01;99898.23;1729367;81;21060;-55
2021/06/05 02:12:31;;;;;;;5.87;2.15;;;;;;;12.37;72.07;99900.78;1599419;87;21688;-55
2021/06/05 02:15:13;;;;;;;5.30;3.02;;;;;;;12.41;72.05;99904.61;1659355;84;20929;-55
2021/06/05 02:17:41;;;;;;;8.30;2.43;;;;;;;12.42;72.12;99904.97;1708637;80;21030;-55
2021/06/05 02:20:28;;;;;;;5.78;2.45;;;;;;;12.41;72.17;99902.37;1766244;80;21113;-56
2021/06/05 02:22:58;;;;;;;4.87;2.77;;;;;;;12.42;72.21;99902.75;1750664;80;21406;-56
2021/06/05 02:25:25;;;;;;;5.40;3.08;;;;;;;12.40;72.37;99902.86;1766563;80;21151;-55
2021/06/05 02:27:53;;;;;;;4.22;3.10;;;;;;;12.39;72.51;99899.75;1710957;82;21008;-55
2021/06/05 02:30:23;;;;;;;3.65;2.30;;;;;;;12.39;72.63;99899.75;1701081;82;21124;-56
2021/06/05 02:32:51;;;;;;;8.63;3.00;;;;;;;12.40;72.74;99906.91;1702584;82;20997;-55
2021/06/05 02:35:35;;;;;;;4.90;2.52;;;;;;;12.44;72.84;99899.50;1695676;83;21926;-55
2021/06/05 02:38:04;;;;;;;7.35;2.62;;;;;;;12.49;73.12;99901.49;1765265;80;20942;-55
2021/06/05 02:40:36;;;;;;;3.92;1.92;;;;;;;12.53;73.34;99894.95;1762130;80;20890;-54
2021/06/05 02:43:07;;;;;;;3.92;2.17;;;;;;;12.59;73.48;99896.47;1750536;80;21077;-55
2021/06/05 02:45:43;;;;;;;4.95;3.02;;;;;;;12.63;73.72;99898.91;1760843;80;21066;-55
2021/06/05 02:48:09;;;;;;;4.42;2.27;;;;;;;12.67;73.82;99896.45;1764089;80;21376;-55
2021/06/05 02:50:42;;;;;;;3.30;2.42;;;;;;;12.71;73.83;99899.36;1758854;79;21058;-55
2021/06/05 02:53:10;;;;;;;7.35;3.00;;;;;;;12.75;73.81;99898.73;1759815;80;21363;-55
2021/06/05 02:55:37;;;;;;;2.83;2.20;;;;;;;12.80;73.83;99896.63;1761928;80;21074;-56
2021/06/05 02:58:06;;;;;;;4.50;2.50;;;;;;;12.86;73.85;99898.98;1761095;80;21034;-55
2021/06/05 03:00:40;;;;;;;3.45;2.20;;;;;;;12.93;73.84;99898.20;1761398;80;21109;-55
2021/06/05 03:03:10;;;;;;;6.28;1.65;;;;;;;13.00;73.97;99898.24;1760786;80;21540;-56
2021/06/05 03:05:38;;;;;;;7.12;2.30;;;;;;;13.07;74.08;99893.76;1756576;80;20911;-55
2021/06/05 03:08:08;;;;;;;2.22;1.98;;;;;;;13.16;74.07;99898.69;1762221;80;20922;-54
2021/06/05 03:10:35;;;;;;;2.77;1.85;;;;;;;13.25;74.21;99897.29;1759998;80;21378;-55
2021/06/05 03:13:04;;;;;;;6.03;2.35;;;;;;;13.34;74.23;99899.47;1759912;80;21102;-55
2021/06/05 03:15:31;;;;;;;5.97;1.98;;;;;;;13.44;74.21;99899.31;1761137;80;20912;-55
2021/06/05 03:17:59;;;;;;;7.87;2.27;;;;;;;13.53;73.75;99898.78;1759129;80;20943;-54
2021/06/05 03:20:32;;;;;;;2.75;1.87;;;;;;;13.61;73.38;99895.14;1705549;82;20995;-54
2021/06/05 03:22:59;;;;;;;4.80;1.50;;;;;;;13.72;73.17;99893.66;1676733;83;21385;-54
2021/06/05 03:25:26;;;;;;;3.70;1.87;;;;;;;13.82;72.94;99897.09;1706543;81;20987;-55
2021/06/05 03:27:53;;;;;;;8.93;1.75;;;;;;;13.91;72.69;99892.48;1759252;80;21538;-54
2021/06/05 03:30:22;;;;;;;9.60;2.62;;;;;;;13.98;71.45;99889.80;1750413;80;21057;-55
2021/06/05 03:32:49;;;;;;;8.45;3.17;;;;;;;14.09;70.75;99885.58;1757401;80;20958;-56
2021/06/05 03:35:15;;;;;;;6.62;2.55;;;;;;;14.15;70.23;99886.06;1754830;80;20972;-55
2021/06/05 03:37:42;;;;;;;2.25;1.67;;;;;;;14.22;69.72;99882.50;1752722;80;21368;-56
2021/06/05 03:40:11;;;;;;;6.47;1.98;;;;;;;14.27;69.50;99885.33;1753729;80;20946;-55
2021/06/05 03:42:37;;;;;;;5.10;1.90;;;;;;;14.32;69.54;99882.33;1754383;80;21011;-54
2021/06/05 03:45:06;;;;;;;4.67;1.40;;;;;;;14.37;68.96;99888.35;1755200;80;21043;-55
2021/06/05 03:47:33;;;;;;;7.78;1.62;;;;;;;14.44;68.43;99881.63;1698726;82;21048;-56
2021/06/05 03:50:03;;;;;;;5.85;1.85;;;;;;;14.51;67.53;99876.69;1752623;80;21449;-55
2021/06/05 03:52:31;;;;;;;2.40;1.10;;;;;;;14.59;66.88;99879.30;1756820;80;21506;-55
2021/06/05 03:54:57;;;;;;;3.75;1.57;;;;;;;14.69;66.34;99883.66;1749265;79;21053;-56
2021/06/05 03:57:25;;;;;;;7.33;1.62;;;;;;;14.76;65.95;99881.82;1754391;80;21085;-55
2021/06/05 03:59:53;;;;;;;6.45;1.40;;;;;;;14.86;65.71;99880.76;1755713;79;21802;-55
2021/06/05 04:02:21;;;;;;;7.95;1.20;;;;;;;14.93;65.67;99880.75;1694565;82;21645;-55
2021/06/05 04:04:47;;;;;;;3.15;1.25;;;;;;;15.00;65.41;99876.67;1691441;83;21066;-56
2021/06/05 04:07:16;;;;;;;7.47;1.55;;;;;;;15.07;65.47;99878.01;1749389;80;21034;-55
2021/06/05 04:09:42;;;;;;;4.95;1.00;;;;;;;15.12;64.42;99876.38;1753497;80;21114;-54
2021/06/05 04:12:10;;;;;;;4.08;1.27;;;;;;;15.19;64.60;99879.55;1755515;80;21070;-53
2021/06/05 04:14:37;;;;;;;3.33;1.20;;;;;;;15.25;64.63;99875.08;1749599;80;21493;-54
2021/06/05 04:17:07;;;;;;;6.75;1.20;;;;;;;15.30;64.54;99872.95;1751223;80;21484;-54
2021/06/05 04:19:34;;;;;;;3.77;1.57;;;;;;;15.37;64.06;99885.13;1753972;80;21496;-56
2021/06/05 04:22:00;;;;;;;3.85;1.15;;;;;;;15.42;63.89;99871.64;1760683;80;21577;-55
2021/06/05 04:24:26;;;;;;;4.50;0.85;;;;;;;15.49;63.17;99872.97;1756043;80;21117;-55
2021/06/05 04:26:53;;;;;;;3.70;0.98;;;;;;;15.59;62.71;99869.67;1701422;82;21234;-57
2021/06/05 04:29:20;;;;;;;4.20;1.00;;;;;;;15.68;62.57;99873.13;1754851;80;21140;-56
2021/06/05 04:31:47;;;;;;;5.30;1.17;;;;;;;15.79;62.43;99867.38;1765111;80;21049;-56
2021/06/05 04:34:13;;;;;;;1.42;1.10;;;;;;;15.89;62.30;99868.98;1765404;80;21152;-56
2021/06/05 04:36:39;;;;;;;3.58;1.10;;;;;;;15.99;62.25;99865.16;1759544;80;21060;-54
2021/06/05 04:39:07;;;;;;;3.55;1.30;;;;;;;16.08;61.63;99867.20;1728562;82;21161;-55
2021/06/05 04:41:33;;;;;;;5.92;1.22;;;;;;;16.14;61.59;99865.45;1727695;82;21317;-55
2021/06/05 04:44:00;;;;;;;8.63;1.15;;;;;;;16.22;61.57;99868.50;1702424;82;21077;-56
2021/06/05 04:46:27;;;;;;;5.75;1.12;;;;;;;16.29;60.96;99860.30;1719381;82;21115;-57
2021/06/05 04:48:53;;;;;;;3.62;1.02;;;;;;;16.37;60.63;99867.42;1714300;82;21059;-57
2021/06/05 04:51:21;;;;;;;8.38;1.20;;;;;;;16.44;60.83;99862.42;1715041;82;21140;-57
2021/06/05 04:53:48;;;;;;;5.70;1.12;;;;;;;16.51;60.73;99860.52;1712517;82;21534;-59
2021/06/05 04:56:17;;;;;;;5.22;0.80;;;;;;;16.59;59.78;99861.33;1727446;82;21489;-62
2021/06/05 04:58:43;;;;;;;4.12;0.70;;;;;;;16.68;58.17;99863.91;1698841;83;21103;-59
2021/06/05 05:01:09;;;;;;;6.20;0.85;;;;;;;16.75;58.10;99856.59;1700290;83;21070;-57
2021/06/05 05:03:36;;;;;;;4.75;0.90;;;;;;;16.82;56.46;99857.89;1706681;82;21066;-59
2021/06/05 05:06:04;;;;;;;4.50;1.00;;;;;;;16.90;57.15;99850.53;1704886;82;21619;-60
2021/06/05 05:08:30;;;;;;;2.95;0.70;;;;;;;16.97;57.30;99855.41;1704242;82;21125;-64
2021/06/05 05:10:58;;;;;;;8.23;0.90;;;;;;;17.12;57.21;99848.45;1705256;82;21140;-57
2021/06/05 05:13:32;;;;;;;1.22;0.70;;;;;;;17.12;57.21;99848.45;1706682;83;21053;-58
2021/06/05 05:16:00;;;;;;;2.87;0.70;;;;;;;17.21;56.61;99847.78;1706368;83;21639;-56
2021/06/05 05:18:26;;;;;;;2.08;0.50;;;;;;;17.31;56.86;99848.84;1705929;83;22268;-56
2021/06/05 05:20:55;;;;;;;3.10;0.60;;;;;;;17.51;55.13;99837.84;1703254;83;21575;-57
2021/06/05 05:23:25;;;;;;;2.75;0.60;;;;;;;17.51;55.13;99837.84;1710942;82;21090;-57
2021/06/05 05:25:52;;;;;;;2.25;0.57;;;;;;;17.59;53.15;99832.68;1708450;82;21169;-60
2021/06/05 05:28:18;;;;;;;1.35;0.50;;;;;;;17.69;53.32;99830.52;1706619;82;21139;-59
2021/06/05 05:30:49;;;;;;;2.22;0.60;;;;;;;17.76;52.72;99833.66;1700299;82;21129;-59
2021/06/05 05:33:16;;;;;;;1.72;0.40;;;;;;;17.84;53.09;99834.43;1693798;82;21076;-60
2021/06/05 05:35:44;;;;;;;0.50;0.40;;;;;;;17.92;52.84;99832.86;1756044;80;21656;-58
2021/06/05 05:38:14;;;;;;;0.70;0.45;;;;;;;18.01;53.02;99831.28;1756320;80;21564;-57
2021/06/05 05:40:41;;;;;;;3.02;0.50;;;;;;;18.10;52.34;99823.75;1757517;80;21097;-58
2021/06/05 05:43:09;;;;;;;1.52;0.53;;;;;;;18.19;51.45;99826.25;1759498;80;20923;-58
2021/06/05 05:45:35;;;;;;;1.35;0.40;;;;;;;18.25;50.64;99823.91;1674592;82;21147;-59
2021/06/05 05:48:06;;;;;;;2.77;0.40;;;;;;;18.32;50.61;99818.34;1753406;80;21145;-57
2021/06/05 05:50:34;;;;;;;1.20;0.50;;;;;;;18.40;50.54;99817.73;1756648;80;21069;-59
2021/06/05 05:53:02;;;;;;;4.10;0.40;;;;;;;18.47;49.46;99820.34;1762333;80;21371;-57
2021/06/05 05:55:29;;;;;;;2.27;0.40;;;;;;;18.51;48.21;99813.17;1759206;80;21547;-58
2021/06/05 05:58:05;;;;;;;0.90;0.40;;;;;;;18.57;48.10;99813.69;1760829;80;21398;-57
2021/06/05 06:00:33;;;;;;;8.45;0.50;;;;;;;18.60;48.22;99814.82;1761746;79;21369;-59
2021/06/05 06:03:01;;;;;;;2.30;0.40;;;;;;;18.65;48.04;99809.36;1761646;80;21049;-58
2021/06/05 06:05:28;;;;;;;0.95;0.30;;;;;;;18.71;47.55;99803.93;1761227;80;21619;-58
2021/06/05 06:07:54;;;;;;;1.67;0.40;;;;;;;18.75;47.97;99799.45;1752116;80;21049;-59
2021/06/05 06:10:21;;;;;;;2.50;0.72;;;;;;;18.82;47.29;99799.81;1753230;80;21132;-59
2021/06/05 06:12:48;;;;;;;0.90;0.30;;;;;;;18.87;46.65;99803.05;1753374;80;21065;-59
2021/06/05 06:15:20;;;;;;;3.02;0.57;;;;;;;18.90;45.77;99791.88;1758851;80;21093;-58
2021/06/05 06:17:48;;;;;;;0.68;0.40;;;;;;;18.93;45.94;99791.63;1756037;80;21454;-58
2021/06/05 06:20:23;;;;;;;0.70;0.30;;;;;;;18.98;46.76;99792.11;1756763;80;21379;-58
2021/06/05 06:22:49;;;;;;;1.22;0.40;;;;;;;19.04;46.33;99788.90;1754657;80;21085;-58
2021/06/05 06:25:19;;;;;;;0.90;0.25;;;;;;;19.10;46.07;99790.24;1753036;80;21304;-59
2021/06/05 06:27:44;;;;;;;2.58;0.40;;;;;;;19.14;45.84;99782.19;1755876;79;21158;-57
2021/06/05 06:30:12;;;;;;;1.27;0.30;;;;;;;19.19;45.40;99786.75;1757546;80;21093;-58
2021/06/05 06:32:39;;;;;;;2.05;0.40;;;;;;;19.23;45.43;99778.66;1754944;80;21386;-57
2021/06/05 06:35:06;;;;;;;1.15;0.50;;;;;;;19.27;45.77;99775.56;1754073;80;20879;-58
2021/06/05 06:37:32;;;;;;;0.60;0.40;;;;;;;19.32;45.95;99775.16;1752339;80;20915;-59
2021/06/05 06:39:59;;;;;;;0.68;0.30;;;;;;;19.39;46.00;99774.18;1756190;80;21070;-58
2021/06/05 06:42:25;;;;;;;1.87;0.30;;;;;;;19.45;45.98;99779.11;1755012;80;21821;-59
2021/06/05 06:44:52;;;;;;;9.63;0.50;;;;;;;19.50;44.05;99775.02;1696111;82;21743;-59
2021/06/05 06:47:18;;;;;;;1.70;0.40;;;;;;;19.54;44.11;99776.50;1755170;80;20968;-58
2021/06/05 06:49:45;;;;;;;2.12;0.40;;;;;;;19.57;44.75;99772.13;1752980;80;21066;-59
2021/06/05 06:52:11;;;;;;;1.37;0.40;;;;;;;19.60;44.46;99777.34;1748548;80;21042;-58
2021/06/05 06:54:38;;;;;;;1.32;0.37;;;;;;;19.64;44.78;99780.20;1754184;80;21472;-59
2021/06/05 06:57:06;;;;;;;0.50;0.30;;;;;;;19.70;45.14;99777.92;1751206;80;21555;-57
2021/06/05 06:59:33;;;;;;;1.30;0.40;;;;;;;19.78;45.34;99776.77;1755469;79;20950;-57
2021/06/05 07:01:59;;;;;;;0.50;0.30;;;;;;;19.86;43.24;99770.14;1749626;80;21172;-59
2021/06/05 07:04:26;;;;;;;1.47;0.40;;;;;;;19.91;43.58;99771.47;1753021;80;21517;-59
2021/06/05 07:06:52;;;;;;;0.50;0.33;;;;;;;19.97;43.46;99766.86;1751847;80;21178;-59
2021/06/05 07:09:18;;;;;;;1.60;0.30;;;;;;;20.02;43.14;99763.72;1750826;80;21046;-59
2021/06/05 07:11:45;;;;;;;2.70;0.40;;;;;;;20.03;42.76;99770.42;1753591;80;21069;-58
2021/06/05 07:14:12;;;;;;;0.78;0.30;;;;;;;20.06;43.18;99769.80;1751355;80;21046;-59
2021/06/05 07:16:39;;;;;;;0.95;0.40;;;;;;;20.08;44.03;99765.03;1753870;79;21108;-59
2021/06/05 07:19:06;;;;;;;1.30;0.30;;;;;;;20.14;43.66;99760.42;1753787;80;21877;-59
2021/06/05 07:21:33;;;;;;;0.37;0.30;;;;;;;20.20;44.10;99758.52;1748068;79;21067;-57
2021/06/05 07:24:01;;;;;;;1.02;0.37;;;;;;;20.28;43.00;99762.30;1754516;80;21661;-59
2021/06/05 07:26:28;;;;;;;5.70;0.50;;;;;;;20.34;42.08;99750.85;1694256;82;21115;-58
2021/06/05 07:29:00;;;;;;;7.87;1.15;;;;;;;20.40;42.37;99754.93;1751623;80;21442;-60
2021/06/05 07:31:32;;;;;;;4.35;0.40;;;;;;;20.50;42.87;99750.88;1758466;80;21493;-59
2021/06/05 07:33:59;;;;;;;0.55;0.40;;;;;;;20.52;42.30;99751.09;1759905;80;21089;-59
2021/06/05 07:36:32;;;;;;;2.17;0.33;;;;;;;20.56;42.18;99755.30;1760925;80;21500;-59
2021/06/05 07:38:59;;;;;;;;;;;;;;;20.58;42.24;99748.33;1765427;80;20899;-59
2021/06/05 07:41:27;;;;;;;0.30;0.30;;;;;;;20.64;42.38;99747.77;1760259;80;20267;-58
2021/06/05 07:43:54;;;;;;;0.70;0.30;;;;;;;20.65;41.33;99738.56;1759541;80;21505;-61
2021/06/05 07:46:21;;;;;;;2.77;0.40;;;;;;;20.66;41.55;99743.03;1762070;80;21316;-59
2021/06/05 07:48:48;;;;;;;2.60;0.33;;;;;;;20.61;40.22;99739.33;1759276;80;21454;-59
2021/06/05 07:51:15;;;;;;;3.35;0.40;;;;;;;20.53;40.11;99739.15;1757111;80;21525;-59
2021/06/05 07:53:43;;;;;;;1.02;0.33;;;;;;;20.45;40.58;99737.61;1762585;80;21495;-58
2021/06/05 07:56:09;;;;;;;1.65;0.30;;;;;;;20.39;41.59;99725.36;1763027;80;21894;-58
2021/06/05 07:58:36;;;;;;;1.30;0.40;;;;;;;20.44;41.90;99720.83;1727754;82;20974;-59
2021/06/05 08:01:04;;;;;;;7.85;0.40;;;;;;;20.51;41.62;99718.41;1759373;80;21413;-59
2021/06/05 08:03:31;;;;;;;1.98;0.40;;;;;;;20.61;41.50;99712.48;1762767;80;21527;-59
2021/06/05 08:05:58;;;;;;;2.42;0.40;;;;;;;20.73;41.37;99705.91;1759160;80;21540;-59
2021/06/05 08:08:24;;;;;;;0.47;0.23;;;;;;;20.89;39.93;99705.38;1760792;79;21164;-59
2021/06/05 08:10:51;;;;;;;1.85;0.30;;;;;;;21.03;39.02;99701.72;1699492;82;21112;-59
2021/06/05 08:13:18;;;;;;;0.53;0.30;;;;;;;21.12;38.27;99704.11;1762276;80;20971;-60
2021/06/05 08:15:47;;;;;;;0.40;0.30;;;;;;;21.18;37.68;99694.52;1761718;80;20958;-58
2021/06/05 08:18:15;;;;;;;0.72;0.30;;;;;;;21.16;36.86;99706.94;1762147;80;21473;-59
2021/06/05 08:20:52;;;;;;;2.58;0.30;;;;;;;21.10;37.18;99708.35;1760241;80;21069;-59
2021/06/05 08:23:19;;;;;;;1.02;0.30;;;;;;;21.05;37.48;99698.34;1763620;80;20858;-59
2021/06/05 08:25:46;;;;;;;0.47;0.37;;;;;;;21.04;38.80;99700.72;1764216;79;21246;-58
2021/06/05 08:28:12;;;;;;;1.60;0.33;;;;;;;21.02;37.64;99697.75;1756448;80;21447;-59
2021/06/05 08:30:46;;;;;;;0.40;0.30;;;;;;;21.00;38.18;99703.89;1701228;82;21448;-59
2021/06/05 08:33:13;;;;;;;4.12;0.33;;;;;;;21.03;38.48;99700.36;1763638;80;21595;-59
2021/06/05 08:35:40;;;;;;;0.80;0.30;;;;;;;21.05;38.78;99699.72;1762334;79;21010;-59
2021/06/05 08:38:07;;;;;;;0.80;0.40;;;;;;;21.11;38.46;99700.51;1703851;82;21158;-59
2021/06/05 08:40:48;;;;;;;1.40;0.80;;;;;;;21.17;38.97;99699.59;1758283;80;21435;-59
2021/06/05 08:45:29;;;;;;;1.25;0.40;;;;;;;21.43;36.95;99680.27;1790460;77;28880;-56
2021/06/05 08:47:56;;;;;;;5.42;0.40;;;;;;;21.50;37.85;99684.16;1766662;79;21096;-58
2021/06/05 08:50:28;;;;;;;8.80;0.80;;;;;;;21.61;36.84;99675.76;1765840;79;22281;-58
2021/06/05 08:53:20;;;;;;;1.85;0.30;;;;;;;21.72;36.78;99678.85;1766119;79;20871;-57
2021/06/05 08:56:00;;;;;;;0.62;0.35;;;;;;;21.82;36.05;99681.94;1769154;79;20879;-56
2021/06/05 08:58:34;;;;;;;0.78;0.40;;;;;;;21.84;36.80;99678.56;1760985;79;21525;-58
2021/06/05 09:01:06;;;;;;;1.37;0.30;;;;;;;21.89;36.40;99680.84;1768552;79;21998;-58
2021/06/05 09:03:35;;;;;;;2.02;0.30;;;;;;;21.95;36.03;99676.13;1768405;79;21029;-57
2021/06/05 09:06:11;;;;;;;0.53;0.30;;;;;;;22.02;36.52;99672.35;1772233;79;20899;-57
2021/06/05 09:08:38;;;;;;;2.05;0.30;;;;;;;22.05;36.61;99672.03;1766244;79;20899;-56
2021/06/05 09:11:06;;;;;;;1.05;0.40;;;;;;;22.06;36.08;99673.77;1767123;79;21025;-57
2021/06/05 09:13:33;;;;;;;0.95;0.30;;;;;;;22.05;35.76;99661.94;1769976;79;21700;-56
2021/06/05 09:16:23;;;;;;;1.35;0.30;;;;;;;22.01;35.69;99667.88;1768139;79;21715;-56
2021/06/05 09:19:12;;;;;;;0.35;0.35;;;;;;;21.94;36.14;99667.58;1767376;79;20903;-56
2021/06/05 09:21:49;;;;;;;3.35;0.30;;;;;;;21.80;35.88;99666.66;1768429;79;20870;-58
2021/06/05 09:24:21;;;;;;;0.50;0.40;;;;;;;21.73;35.95;99666.89;1768312;79;20921;-59
2021/06/05 09:27:13;;;;;;;0.50;0.40;;;;;;;21.70;36.60;99669.41;1767865;79;20977;-57
2021/06/05 09:30:07;;;;;;;0.50;0.40;;;;;;;21.64;36.18;99663.66;1754261;79;20875;-59
2021/06/05 09:32:37;;;;;;;2.17;0.40;;;;;;;21.54;36.09;99659.55;1769743;79;20931;-59
2021/06/05 09:35:14;;;;;;;0.82;0.50;;;;;;;21.47;36.85;99662.02;1762102;79;20875;-59
2021/06/05 09:37:54;;;;;;;2.00;0.40;;;;;;;21.53;37.03;99662.80;1766504;79;21993;-59
2021/06/05 09:40:29;;;;;;;2.30;0.40;;;;;;;21.59;36.91;99661.88;1769061;79;20920;-55
2021/06/05 09:43:13;;;;;;;2.15;0.30;;;;;;;21.64;36.12;99659.55;1765636;79;21354;-57
2021/06/05 09:45:46;;;;;;;0.75;0.40;;;;;;;21.68;35.96;99650.04;1746765;79;20943;-58
2021/06/05 09:48:32;;;;;;;1.85;0.30;;;;;;;21.71;35.83;99654.70;1745346;79;20907;-58
2021/06/05 09:51:03;;;;;;;0.60;0.30;;;;;;;21.73;35.80;99646.34;1746263;79;21050;-60
2021/06/05 09:53:34;;;;;;;0.42;0.33;;;;;;;21.75;34.87;99641.59;1745302;79;21085;-58
2021/06/05 09:56:05;;;;;;;0.30;0.20;;;;;;;21.72;34.99;99647.34;1747967;79;21361;-59
2021/06/05 09:58:37;;;;;;;2.55;0.40;;;;;;;21.66;35.48;99652.05;1740792;79;21038;-59
2021/06/05 10:01:25;;;;;;;2.72;0.40;;;;;;;21.62;35.30;99648.73;1744771;79;21422;-58
2021/06/05 10:04:17;;;;;;;1.10;0.40;;;;;;;21.58;36.11;99650.55;1739949;79;21034;-59
2021/06/05 10:06:53;;;;;;;0.98;0.40;;;;;;;21.54;36.64;99641.75;1747766;79;21262;-57
2021/06/05 10:09:30;;;;;;;1.10;0.30;;;;;;;21.55;37.04;99639.38;1751098;79;22564;-58
2021/06/05 10:12:03;;;;;;;1.57;0.30;;;;;;;21.59;36.98;99639.96;1741516;79;21097;-58
2021/06/05 10:15:02;;;;;;;2.90;0.40;;;;;;;21.65;36.81;99632.02;1749920;79;21398;-57
2021/06/05 10:17:50;;;;;;;1.17;0.42;;;;;;;21.75;36.41;99623.27;1744252;80;21057;-56
2021/06/05 10:20:38;;;;;;;0.30;0.30;;;;;;;21.89;36.62;99625.53;1745402;80;21458;-54
2021/06/05 10:23:05;;;;;;;0.68;0.30;;;;;;;22.05;36.94;99627.67;1743806;79;21098;-57
2021/06/05 10:25:38;;;;;;;0.50;0.40;;;;;;;22.14;35.70;99631.39;1743246;79;21062;-54
2021/06/05 10:28:15;;;;;;;1.87;0.28;;;;;;;22.14;35.55;99628.14;1747367;79;21550;-56
2021/06/05 10:30:59;;;;;;;1.27;0.72;;;;;;;22.10;34.80;99634.95;1744561;79;21162;-58
2021/06/05 10:33:40;;;;;;;3.98;0.30;;;;;;;22.07;34.40;99624.28;1741749;79;22291;-56
2021/06/05 10:36:36;;;;;;;2.70;0.25;;;;;;;22.06;34.41;99618.95;1742148;79;21136;-57
2021/06/05 10:39:15;;;;;;;4.03;0.30;;;;;;;22.14;35.42;99613.58;1746351;79;21137;-56
2021/06/05 10:41:45;;;;;;;1.82;0.30;;;;;;;22.31;36.21;99606.42;1744522;79;21413;-56
2021/06/05 10:44:13;;;;;;;3.72;0.47;;;;;;;22.43;34.33;99601.11;1747522;79;21453;-55
2021/06/05 10:47:04;;;;;;;2.15;0.40;;;;;;;22.49;35.73;99599.98;1745420;79;21592;-56
2021/06/05 10:49:38;;;;;;;1.17;0.50;;;;;;;22.51;33.99;99603.44;1680133;82;21139;-58
2021/06/05 10:52:37;;;;;;;2.83;0.57;;;;;;;22.43;34.32;99606.09;1689195;82;21097;-56
2021/06/05 10:55:11;;;;;;;1.32;0.40;;;;;;;22.34;34.55;99604.77;1665117;83;21654;-56
2021/06/05 10:57:41;;;;;;;0.47;0.40;;;;;;;22.23;35.22;99607.19;1744318;79;21072;-56
2021/06/05 11:00:30;;;;;;;3.83;0.40;;;;;;;22.17;35.16;99613.28;1694569;82;20934;-56
2021/06/05 11:02:57;;;;;;;1.07;0.50;;;;;;;22.12;35.62;99616.97;1711612;81;21805;-54
2021/06/05 11:05:36;;;;;;;0.93;0.42;;;;;;;22.09;35.27;99613.17;1709549;81;21059;-55
2021/06/05 11:08:20;;;;;;;1.22;0.40;;;;;;;22.07;35.36;99613.83;1709322;81;21064;-57
2021/06/05 11:10:50;;;;;;;3.27;0.50;;;;;;;22.05;35.28;99618.59;1748828;79;21061;-57
2021/06/05 11:13:41;;;;;;;1.22;0.30;;;;;;;22.05;37.00;99618.59;1746456;79;21038;-55
2021/06/05 11:16:17;;;;;;;3.95;0.35;;;;;;;22.13;36.36;99607.22;1747936;79;21466;-53
2021/06/05 11:19:03;;;;;;;0.40;0.30;;;;;;;22.24;36.38;99613.03;1746206;79;21022;-54
2021/06/05 11:21:43;;;;;;;2.90;0.90;;;;;;;22.32;36.17;99600.80;1749573;79;21134;-54
2021/06/05 11:24:14;;;;;;;0.65;0.47;;;;;;;22.38;35.68;99605.66;1760238;79;21070;-56
2021/06/05 11:26:49;;;;;;;1.15;0.30;;;;;;;22.42;36.78;99607.09;1754224;79;21567;-55
2021/06/05 11:29:31;;;;;;;0.50;0.40;;;;;;;22.45;36.74;99612.80;1753090;80;21103;-55
2021/06/05 11:32:20;;;;;;;0.40;0.30;;;;;;;22.46;36.20;99611.75;1696837;82;21054;-57
2021/06/05 11:34:53;;;;;;;1.75;0.30;;;;;;;22.48;36.11;99608.35;1727553;79;21033;-57
2021/06/05 11:37:38;;;;;;;0.70;0.30;;;;;;;22.43;35.25;99606.09;1753255;79;21113;-55
2021/06/05 11:40:08;;;;;;;1.87;0.35;;;;;;;22.39;35.83;99601.04;1757523;79;21052;-55
2021/06/05 11:42:53;;;;;;;2.40;0.47;;;;;;;22.37;35.14;99603.09;1758598;79;21126;-56
2021/06/05 11:45:29;;;;;;;2.58;0.40;;;;;;;22.34;35.37;99602.02;1754983;79;20979;-55
2021/06/05 11:47:56;;;;;;;4.15;0.78;;;;;;;22.36;35.64;99596.75;1758791;79;21031;-56
2021/06/05 11:50:30;;;;;;;0.40;0.30;;;;;;;22.41;36.59;99593.02;1757772;80;21046;-56
2021/06/05 11:53:14;;;;;;;4.75;0.40;;;;;;;22.49;36.70;99591.75;1755167;79;26565;-56
2021/06/05 11:55:48;;;;;;;1.57;0.40;;;;;;;22.55;35.87;99591.13;1744694;79;22165;-56